sensor_id;sensor_type;location;lat;lon;timestamp;temperature;humidity
75262;DHT22;63859;51.064;4.580;2023-02-02T00:00:12;8.30;99.90
75262;DHT22;63859;51.064;4.580;2023-02-02T00:02:38;8.20;99.90
75262;DHT22;63859;51.064;4.580;2023-02-02T00:05:03;8.20;99.90
75262;DHT22;63859;51.064;4.580;2023-02-02T00:07:29;8.20;99.90
75262;DHT22;63859;51.064;4.580;2023-02-02T00:09:54;8.10;99.90
75262;DHT22;63859;51.064;4.580;2023-02-02T00:12:20;8.20;99.90
75262;DHT22;63859;51.064;4.580;2023-02-02T00:14:46;8.20;99.90
75262;DHT22;63859;51.064;4.580;2023-02-02T00:17:11;8.20;99.90
75262;DHT22;63859;51.064;4.580;2023-02-02T00:19:37;8.20;99.90
75262;DHT22;63859;51.064;4.580;2023-02-02T00:22:02;8.20;99.90
75262;DHT22;63859;51.064;4.580;2023-02-02T00:24:28;8.20;99.90
75262;DHT22;63859;51.064;4.580;2023-02-02T00:26:56;8.20;99.90
75262;DHT22;63859;51.064;4.580;2023-02-02T00:29:27;8.20;99.90
75262;DHT22;63859;51.064;4.580;2023-02-02T00:31:53;8.20;99.90
75262;DHT22;63859;51.064;4.580;2023-02-02T00:34:20;8.20;99.90
75262;DHT22;63859;51.064;4.580;2023-02-02T00:36:47;8.20;99.90
75262;DHT22;63859;51.064;4.580;2023-02-02T00:39:18;8.20;99.90
75262;DHT22;63859;51.064;4.580;2023-02-02T00:41:45;8.30;99.90
75262;DHT22;63859;51.064;4.580;2023-02-02T00:44:10;8.20;99.90
75262;DHT22;63859;51.064;4.580;2023-02-02T00:46:55;8.20;99.90
75262;DHT22;63859;51.064;4.580;2023-02-02T00:49:20;8.30;99.90
75262;DHT22;63859;51.064;4.580;2023-02-02T00:51:46;8.30;99.90
75262;DHT22;63859;51.064;4.580;2023-02-02T00:54:12;8.30;99.90
75262;DHT22;63859;51.064;4.580;2023-02-02T00:56:39;8.30;99.90
75262;DHT22;63859;51.064;4.580;2023-02-02T00:59:04;8.30;99.90
75262;DHT22;63859;51.064;4.580;2023-02-02T01:01:30;8.30;99.90
75262;DHT22;63859;51.064;4.580;2023-02-02T01:03:55;8.30;99.90
75262;DHT22;63859;51.064;4.580;2023-02-02T01:06:21;8.40;99.90
75262;DHT22;63859;51.064;4.580;2023-02-02T01:08:47;8.30;99.90
75262;DHT22;63859;51.064;4.580;2023-02-02T01:11:12;8.30;99.90
75262;DHT22;63859;51.064;4.580;2023-02-02T01:13:38;8.30;99.90
75262;DHT22;63859;51.064;4.580;2023-02-02T01:16:04;8.30;99.90
75262;DHT22;63859;51.064;4.580;2023-02-02T01:18:30;8.30;99.90
75262;DHT22;63859;51.064;4.580;2023-02-02T01:23:23;8.20;99.90
75262;DHT22;63859;51.064;4.580;2023-02-02T01:25:55;8.30;99.90
75262;DHT22;63859;51.064;4.580;2023-02-02T01:28:22;8.20;99.90
75262;DHT22;63859;51.064;4.580;2023-02-02T01:30:48;8.20;99.90
75262;DHT22;63859;51.064;4.580;2023-02-02T01:33:15;8.30;99.90
75262;DHT22;63859;51.064;4.580;2023-02-02T01:35:48;8.30;99.90
75262;DHT22;63859;51.064;4.580;2023-02-02T01:38:14;8.30;99.90
75262;DHT22;63859;51.064;4.580;2023-02-02T01:40:48;8.20;99.90
75262;DHT22;63859;51.064;4.580;2023-02-02T01:43:58;8.30;99.90
75262;DHT22;63859;51.064;4.580;2023-02-02T01:46:26;8.20;99.90
75262;DHT22;63859;51.064;4.580;2023-02-02T01:49:14;8.20;99.90
75262;DHT22;63859;51.064;4.580;2023-02-02T01:51:43;8.20;99.90
75262;DHT22;63859;51.064;4.580;2023-02-02T01:54:24;8.30;99.90
75262;DHT22;63859;51.064;4.580;2023-02-02T01:56:55;8.20;99.90
75262;DHT22;63859;51.064;4.580;2023-02-02T01:59:22;8.20;99.90
75262;DHT22;63859;51.064;4.580;2023-02-02T02:01:50;8.20;99.90
75262;DHT22;63859;51.064;4.580;2023-02-02T02:04:16;8.10;99.90
75262;DHT22;63859;51.064;4.580;2023-02-02T02:06:42;8.10;99.90
75262;DHT22;63859;51.064;4.580;2023-02-02T02:09:10;8.10;99.90
75262;DHT22;63859;51.064;4.580;2023-02-02T02:11:35;8.00;99.90
75262;DHT22;63859;51.064;4.580;2023-02-02T02:14:05;8.00;99.90
75262;DHT22;63859;51.064;4.580;2023-02-02T02:17:09;8.00;99.90
75262;DHT22;63859;51.064;4.580;2023-02-02T02:22:55;8.00;99.90
75262;DHT22;63859;51.064;4.580;2023-02-02T02:37:44;7.90;99.90
75262;DHT22;63859;51.064;4.580;2023-02-02T02:40:19;7.90;99.90
75262;DHT22;63859;51.064;4.580;2023-02-02T02:43:06;7.90;99.90
75262;DHT22;63859;51.064;4.580;2023-02-02T02:45:34;7.90;99.90
75262;DHT22;63859;51.064;4.580;2023-02-02T02:48:02;7.90;99.90
75262;DHT22;63859;51.064;4.580;2023-02-02T02:50:28;7.90;99.90
75262;DHT22;63859;51.064;4.580;2023-02-02T02:53:10;7.90;99.90
75262;DHT22;63859;51.064;4.580;2023-02-02T02:58:35;7.90;99.90
75262;DHT22;63859;51.064;4.580;2023-02-02T03:01:20;7.90;99.90
75262;DHT22;63859;51.064;4.580;2023-02-02T03:04:32;7.90;99.90
75262;DHT22;63859;51.064;4.580;2023-02-02T03:07:08;7.90;99.90
75262;DHT22;63859;51.064;4.580;2023-02-02T03:09:39;7.90;99.90
75262;DHT22;63859;51.064;4.580;2023-02-02T03:12:06;7.90;99.90
75262;DHT22;63859;51.064;4.580;2023-02-02T03:14:35;7.90;99.90
75262;DHT22;63859;51.064;4.580;2023-02-02T03:17:01;7.90;99.90
75262;DHT22;63859;51.064;4.580;2023-02-02T03:19:26;7.90;99.90
75262;DHT22;63859;51.064;4.580;2023-02-02T03:21:52;7.90;99.90
75262;DHT22;63859;51.064;4.580;2023-02-02T03:24:18;7.90;99.90
75262;DHT22;63859;51.064;4.580;2023-02-02T03:26:44;7.90;99.90
75262;DHT22;63859;51.064;4.580;2023-02-02T03:29:10;7.90;99.90
75262;DHT22;63859;51.064;4.580;2023-02-02T03:31:36;8.00;99.90
75262;DHT22;63859;51.064;4.580;2023-02-02T03:34:01;7.90;99.90
75262;DHT22;63859;51.064;4.580;2023-02-02T03:36:27;7.80;99.90
75262;DHT22;63859;51.064;4.580;2023-02-02T03:38:52;7.90;99.90
75262;DHT22;63859;51.064;4.580;2023-02-02T03:41:18;7.90;99.90
75262;DHT22;63859;51.064;4.580;2023-02-02T03:43:44;7.90;99.90
75262;DHT22;63859;51.064;4.580;2023-02-02T03:46:09;7.90;99.90
75262;DHT22;63859;51.064;4.580;2023-02-02T03:48:36;7.90;99.90
75262;DHT22;63859;51.064;4.580;2023-02-02T03:51:07;7.90;99.90
75262;DHT22;63859;51.064;4.580;2023-02-02T03:53:32;7.90;99.90
75262;DHT22;63859;51.064;4.580;2023-02-02T03:55:58;7.90;99.90
75262;DHT22;63859;51.064;4.580;2023-02-02T03:58:23;7.90;99.90
75262;DHT22;63859;51.064;4.580;2023-02-02T04:00:49;7.90;99.90
75262;DHT22;63859;51.064;4.580;2023-02-02T04:03:15;7.90;99.90
75262;DHT22;63859;51.064;4.580;2023-02-02T04:05:40;7.90;99.90
75262;DHT22;63859;51.064;4.580;2023-02-02T04:08:06;7.90;99.90
75262;DHT22;63859;51.064;4.580;2023-02-02T04:10:31;7.90;99.90
75262;DHT22;63859;51.064;4.580;2023-02-02T04:12:57;7.90;99.90
75262;DHT22;63859;51.064;4.580;2023-02-02T04:15:23;7.90;99.90
75262;DHT22;63859;51.064;4.580;2023-02-02T04:17:48;7.90;99.90
75262;DHT22;63859;51.064;4.580;2023-02-02T04:20:14;7.90;99.90
75262;DHT22;63859;51.064;4.580;2023-02-02T04:22:39;7.90;99.90
75262;DHT22;63859;51.064;4.580;2023-02-02T04:25:05;7.90;99.90
75262;DHT22;63859;51.064;4.580;2023-02-02T04:27:31;7.90;99.90
75262;DHT22;63859;51.064;4.580;2023-02-02T04:29:58;7.90;99.90
75262;DHT22;63859;51.064;4.580;2023-02-02T04:32:24;8.00;99.90
75262;DHT22;63859;51.064;4.580;2023-02-02T04:34:49;7.90;99.90
75262;DHT22;63859;51.064;4.580;2023-02-02T04:37:15;7.90;99.90
75262;DHT22;63859;51.064;4.580;2023-02-02T04:39:40;7.90;99.90
75262;DHT22;63859;51.064;4.580;2023-02-02T04:42:06;7.90;99.90
75262;DHT22;63859;51.064;4.580;2023-02-02T04:44:31;7.90;99.90
75262;DHT22;63859;51.064;4.580;2023-02-02T04:46:57;7.90;99.90
75262;DHT22;63859;51.064;4.580;2023-02-02T04:49:23;7.90;99.90
75262;DHT22;63859;51.064;4.580;2023-02-02T04:51:48;8.00;99.90
75262;DHT22;63859;51.064;4.580;2023-02-02T04:54:15;8.10;99.90
75262;DHT22;63859;51.064;4.580;2023-02-02T04:56:40;8.00;99.90
75262;DHT22;63859;51.064;4.580;2023-02-02T04:59:06;7.90;99.90
75262;DHT22;63859;51.064;4.580;2023-02-02T05:01:31;8.00;99.90
75262;DHT22;63859;51.064;4.580;2023-02-02T05:03:57;8.00;99.90
75262;DHT22;63859;51.064;4.580;2023-02-02T05:06:23;7.90;99.90
75262;DHT22;63859;51.064;4.580;2023-02-02T05:08:49;7.90;99.90
75262;DHT22;63859;51.064;4.580;2023-02-02T05:11:20;7.80;99.90
75262;DHT22;63859;51.064;4.580;2023-02-02T05:13:51;8.10;99.90
75262;DHT22;63859;51.064;4.580;2023-02-02T05:16:17;7.80;99.90
75262;DHT22;63859;51.064;4.580;2023-02-02T05:18:51;8.10;99.90
75262;DHT22;63859;51.064;4.580;2023-02-02T05:21:18;8.00;99.90
75262;DHT22;63859;51.064;4.580;2023-02-02T05:23:43;7.90;99.90
75262;DHT22;63859;51.064;4.580;2023-02-02T05:26:18;7.80;99.90
75262;DHT22;63859;51.064;4.580;2023-02-02T05:28:45;7.90;99.90
75262;DHT22;63859;51.064;4.580;2023-02-02T05:31:11;7.90;99.90
75262;DHT22;63859;51.064;4.580;2023-02-02T05:33:37;7.90;99.90
75262;DHT22;63859;51.064;4.580;2023-02-02T05:36:03;7.90;99.90
75262;DHT22;63859;51.064;4.580;2023-02-02T05:38:28;7.90;99.90
75262;DHT22;63859;51.064;4.580;2023-02-02T05:40:54;8.00;99.90
75262;DHT22;63859;51.064;4.580;2023-02-02T05:43:24;8.00;99.90
75262;DHT22;63859;51.064;4.580;2023-02-02T05:45:50;7.90;99.90
75262;DHT22;63859;51.064;4.580;2023-02-02T05:48:15;7.90;99.90
75262;DHT22;63859;51.064;4.580;2023-02-02T05:50:42;8.10;99.90
75262;DHT22;63859;51.064;4.580;2023-02-02T05:53:12;7.90;99.90
75262;DHT22;63859;51.064;4.580;2023-02-02T05:55:37;8.10;99.90
75262;DHT22;63859;51.064;4.580;2023-02-02T05:58:03;8.00;99.90
75262;DHT22;63859;51.064;4.580;2023-02-02T06:00:29;7.90;99.90
75262;DHT22;63859;51.064;4.580;2023-02-02T06:02:54;8.00;99.90
75262;DHT22;63859;51.064;4.580;2023-02-02T06:05:20;8.00;99.90
75262;DHT22;63859;51.064;4.580;2023-02-02T06:07:45;7.90;99.90
75262;DHT22;63859;51.064;4.580;2023-02-02T06:10:11;8.00;99.90
75262;DHT22;63859;51.064;4.580;2023-02-02T06:12:37;8.00;99.90
75262;DHT22;63859;51.064;4.580;2023-02-02T06:15:03;8.00;99.90
75262;DHT22;63859;51.064;4.580;2023-02-02T06:17:29;8.00;99.90
75262;DHT22;63859;51.064;4.580;2023-02-02T06:19:54;7.90;99.90
75262;DHT22;63859;51.064;4.580;2023-02-02T06:22:20;8.00;99.90
75262;DHT22;63859;51.064;4.580;2023-02-02T06:24:45;8.00;99.90
75262;DHT22;63859;51.064;4.580;2023-02-02T06:27:11;8.00;99.90
75262;DHT22;63859;51.064;4.580;2023-02-02T06:29:36;8.00;99.90
75262;DHT22;63859;51.064;4.580;2023-02-02T06:32:02;7.90;99.90
75262;DHT22;63859;51.064;4.580;2023-02-02T06:34:28;8.00;99.90
75262;DHT22;63859;51.064;4.580;2023-02-02T06:36:53;7.90;99.90
75262;DHT22;63859;51.064;4.580;2023-02-02T06:39:19;7.90;99.90
75262;DHT22;63859;51.064;4.580;2023-02-02T06:41:45;7.90;99.90
75262;DHT22;63859;51.064;4.580;2023-02-02T06:44:13;7.90;99.90
75262;DHT22;63859;51.064;4.580;2023-02-02T06:46:40;7.90;99.90
75262;DHT22;63859;51.064;4.580;2023-02-02T06:49:05;7.90;99.90
75262;DHT22;63859;51.064;4.580;2023-02-02T06:51:31;7.90;99.90
75262;DHT22;63859;51.064;4.580;2023-02-02T06:53:56;7.90;99.90
75262;DHT22;63859;51.064;4.580;2023-02-02T06:56:22;7.90;99.90
75262;DHT22;63859;51.064;4.580;2023-02-02T06:58:48;7.90;99.90
75262;DHT22;63859;51.064;4.580;2023-02-02T07:01:13;7.90;99.90
75262;DHT22;63859;51.064;4.580;2023-02-02T07:03:39;7.80;99.90
75262;DHT22;63859;51.064;4.580;2023-02-02T07:08:44;7.90;99.90
75262;DHT22;63859;51.064;4.580;2023-02-02T07:11:10;8.10;99.90
75262;DHT22;63859;51.064;4.580;2023-02-02T07:13:36;7.90;99.90
75262;DHT22;63859;51.064;4.580;2023-02-02T07:16:03;7.90;99.90
75262;DHT22;63859;51.064;4.580;2023-02-02T07:18:29;7.90;99.90
75262;DHT22;63859;51.064;4.580;2023-02-02T07:20:58;7.90;99.90
75262;DHT22;63859;51.064;4.580;2023-02-02T07:23:25;7.90;99.90
75262;DHT22;63859;51.064;4.580;2023-02-02T07:26:02;7.90;99.90
75262;DHT22;63859;51.064;4.580;2023-02-02T07:28:28;7.90;99.90
75262;DHT22;63859;51.064;4.580;2023-02-02T07:30:54;7.90;99.90
75262;DHT22;63859;51.064;4.580;2023-02-02T07:33:20;7.90;99.90
75262;DHT22;63859;51.064;4.580;2023-02-02T07:35:46;7.90;99.90
75262;DHT22;63859;51.064;4.580;2023-02-02T07:38:11;7.90;99.90
75262;DHT22;63859;51.064;4.580;2023-02-02T07:40:37;7.90;99.90
75262;DHT22;63859;51.064;4.580;2023-02-02T07:43:02;7.90;99.90
75262;DHT22;63859;51.064;4.580;2023-02-02T07:45:29;7.90;99.90
75262;DHT22;63859;51.064;4.580;2023-02-02T07:47:58;8.00;99.90
75262;DHT22;63859;51.064;4.580;2023-02-02T07:50:25;8.00;99.90
75262;DHT22;63859;51.064;4.580;2023-02-02T07:52:51;8.00;99.90
75262;DHT22;63859;51.064;4.580;2023-02-02T07:55:17;8.00;99.90
75262;DHT22;63859;51.064;4.580;2023-02-02T07:57:43;8.00;99.90
75262;DHT22;63859;51.064;4.580;2023-02-02T08:00:09;7.90;99.90
75262;DHT22;63859;51.064;4.580;2023-02-02T08:02:35;8.00;99.90
75262;DHT22;63859;51.064;4.580;2023-02-02T08:05:01;8.10;99.90
75262;DHT22;63859;51.064;4.580;2023-02-02T08:07:27;8.00;99.90
75262;DHT22;63859;51.064;4.580;2023-02-02T08:09:52;8.00;99.90
75262;DHT22;63859;51.064;4.580;2023-02-02T08:12:19;8.00;99.90
75262;DHT22;63859;51.064;4.580;2023-02-02T08:14:47;8.00;99.90
75262;DHT22;63859;51.064;4.580;2023-02-02T08:17:13;8.00;99.90
75262;DHT22;63859;51.064;4.580;2023-02-02T08:19:39;8.00;99.90
75262;DHT22;63859;51.064;4.580;2023-02-02T08:22:05;8.10;99.90
75262;DHT22;63859;51.064;4.580;2023-02-02T08:24:30;8.20;99.90
75262;DHT22;63859;51.064;4.580;2023-02-02T08:26:56;8.20;99.90
75262;DHT22;63859;51.064;4.580;2023-02-02T08:29:21;8.10;99.90
75262;DHT22;63859;51.064;4.580;2023-02-02T08:31:47;8.20;99.90
75262;DHT22;63859;51.064;4.580;2023-02-02T08:34:13;8.20;99.90
75262;DHT22;63859;51.064;4.580;2023-02-02T08:36:38;8.30;99.90
75262;DHT22;63859;51.064;4.580;2023-02-02T08:39:06;8.30;99.90
75262;DHT22;63859;51.064;4.580;2023-02-02T08:41:32;8.20;99.90
75262;DHT22;63859;51.064;4.580;2023-02-02T08:43:58;8.20;99.90
75262;DHT22;63859;51.064;4.580;2023-02-02T08:46:24;8.20;99.90
75262;DHT22;63859;51.064;4.580;2023-02-02T08:48:50;8.30;99.90
75262;DHT22;63859;51.064;4.580;2023-02-02T08:51:17;8.20;99.90
75262;DHT22;63859;51.064;4.580;2023-02-02T08:53:44;8.20;99.90
75262;DHT22;63859;51.064;4.580;2023-02-02T08:56:18;8.30;99.90
75262;DHT22;63859;51.064;4.580;2023-02-02T08:58:46;8.30;99.90
75262;DHT22;63859;51.064;4.580;2023-02-02T09:01:14;8.30;99.90
75262;DHT22;63859;51.064;4.580;2023-02-02T09:03:41;8.40;99.90
75262;DHT22;63859;51.064;4.580;2023-02-02T09:06:12;8.40;99.90
75262;DHT22;63859;51.064;4.580;2023-02-02T09:08:38;8.40;99.90
75262;DHT22;63859;51.064;4.580;2023-02-02T09:11:06;8.40;99.90
75262;DHT22;63859;51.064;4.580;2023-02-02T09:13:32;8.40;99.90
75262;DHT22;63859;51.064;4.580;2023-02-02T09:15:59;8.50;99.90
75262;DHT22;63859;51.064;4.580;2023-02-02T09:18:25;8.60;99.90
75262;DHT22;63859;51.064;4.580;2023-02-02T09:20:51;8.50;99.90
75262;DHT22;63859;51.064;4.580;2023-02-02T09:23:16;8.60;99.90
75262;DHT22;63859;51.064;4.580;2023-02-02T09:25:42;8.60;99.90
75262;DHT22;63859;51.064;4.580;2023-02-02T09:28:07;8.60;99.90
75262;DHT22;63859;51.064;4.580;2023-02-02T09:30:33;8.60;99.90
75262;DHT22;63859;51.064;4.580;2023-02-02T09:32:59;8.40;99.90
75262;DHT22;63859;51.064;4.580;2023-02-02T09:35:24;8.60;99.90
75262;DHT22;63859;51.064;4.580;2023-02-02T09:37:50;8.60;99.90
75262;DHT22;63859;51.064;4.580;2023-02-02T09:40:17;8.60;99.90
75262;DHT22;63859;51.064;4.580;2023-02-02T09:45:50;8.70;99.90
75262;DHT22;63859;51.064;4.580;2023-02-02T09:48:39;8.70;99.90
75262;DHT22;63859;51.064;4.580;2023-02-02T09:51:13;8.70;99.90
75262;DHT22;63859;51.064;4.580;2023-02-02T09:53:46;8.70;99.90
75262;DHT22;63859;51.064;4.580;2023-02-02T09:56:26;8.70;99.90
75262;DHT22;63859;51.064;4.580;2023-02-02T09:58:55;8.70;99.90
75262;DHT22;63859;51.064;4.580;2023-02-02T10:01:25;8.80;99.90
75262;DHT22;63859;51.064;4.580;2023-02-02T10:06:36;8.80;99.90
75262;DHT22;63859;51.064;4.580;2023-02-02T10:12:24;8.80;99.90
75262;DHT22;63859;51.064;4.580;2023-02-02T10:17:52;8.80;99.90
75262;DHT22;63859;51.064;4.580;2023-02-02T10:26:03;8.90;99.90
75262;DHT22;63859;51.064;4.580;2023-02-02T10:34:26;9.00;99.90
75262;DHT22;63859;51.064;4.580;2023-02-02T10:39:35;9.10;99.90
75262;DHT22;63859;51.064;4.580;2023-02-02T10:44:51;9.30;99.90
75262;DHT22;63859;51.064;4.580;2023-02-02T10:47:26;9.40;99.90
75262;DHT22;63859;51.064;4.580;2023-02-02T10:50:16;9.40;99.90
75262;DHT22;63859;51.064;4.580;2023-02-02T10:52:55;9.40;99.90
75262;DHT22;63859;51.064;4.580;2023-02-02T10:55:37;9.40;99.90
75262;DHT22;63859;51.064;4.580;2023-02-02T11:00:47;9.50;99.90
75262;DHT22;63859;51.064;4.580;2023-02-02T11:03:20;9.50;99.90
75262;DHT22;63859;51.064;4.580;2023-02-02T11:05:46;9.50;99.90
75262;DHT22;63859;51.064;4.580;2023-02-02T11:08:37;9.50;99.90
75262;DHT22;63859;51.064;4.580;2023-02-02T11:11:10;9.40;99.90
75262;DHT22;63859;51.064;4.580;2023-02-02T11:13:44;9.40;99.90
75262;DHT22;63859;51.064;4.580;2023-02-02T11:18:41;9.30;99.90
75262;DHT22;63859;51.064;4.580;2023-02-02T11:21:25;9.30;99.90
75262;DHT22;63859;51.064;4.580;2023-02-02T11:29:31;9.20;99.90
75262;DHT22;63859;51.064;4.580;2023-02-02T11:31:57;9.30;99.90
75262;DHT22;63859;51.064;4.580;2023-02-02T11:34:41;9.30;99.90
75262;DHT22;63859;51.064;4.580;2023-02-02T11:37:20;9.50;99.90
75262;DHT22;63859;51.064;4.580;2023-02-02T11:39:46;9.50;99.90
75262;DHT22;63859;51.064;4.580;2023-02-02T11:42:17;9.60;99.90
75262;DHT22;63859;51.064;4.580;2023-02-02T11:44:50;9.70;99.90
75262;DHT22;63859;51.064;4.580;2023-02-02T11:47:35;9.70;99.90
75262;DHT22;63859;51.064;4.580;2023-02-02T11:50:03;9.70;99.90
75262;DHT22;63859;51.064;4.580;2023-02-02T11:52:30;9.70;99.90
75262;DHT22;63859;51.064;4.580;2023-02-02T11:54:59;9.70;99.90
75262;DHT22;63859;51.064;4.580;2023-02-02T11:57:27;9.90;99.90
75262;DHT22;63859;51.064;4.580;2023-02-02T12:00:15;10.00;99.90
75262;DHT22;63859;51.064;4.580;2023-02-02T12:02:51;10.00;99.90
75262;DHT22;63859;51.064;4.580;2023-02-02T12:07:46;10.10;99.90
75262;DHT22;63859;51.064;4.580;2023-02-02T12:16:00;10.10;99.90
75262;DHT22;63859;51.064;4.580;2023-02-02T12:29:21;9.90;99.90
75262;DHT22;63859;51.064;4.580;2023-02-02T12:32:06;9.90;99.90
75262;DHT22;63859;51.064;4.580;2023-02-02T12:34:53;9.90;99.90
75262;DHT22;63859;51.064;4.580;2023-02-02T12:48:17;10.00;99.90
75262;DHT22;63859;51.064;4.580;2023-02-02T12:56:44;9.90;99.90
75262;DHT22;63859;51.064;4.580;2023-02-02T12:59:42;9.90;99.90
75262;DHT22;63859;51.064;4.580;2023-02-02T13:08:13;10.10;99.90
75262;DHT22;63859;51.064;4.580;2023-02-02T13:10:44;10.10;99.90
75262;DHT22;63859;51.064;4.580;2023-02-02T13:13:23;10.20;99.90
75262;DHT22;63859;51.064;4.580;2023-02-02T13:15:56;10.20;99.90
75262;DHT22;63859;51.064;4.580;2023-02-02T13:18:30;10.30;99.90
75262;DHT22;63859;51.064;4.580;2023-02-02T13:21:01;10.20;99.90
75262;DHT22;63859;51.064;4.580;2023-02-02T13:23:33;10.10;99.90
75262;DHT22;63859;51.064;4.580;2023-02-02T13:34:21;10.10;99.90
75262;DHT22;63859;51.064;4.580;2023-02-02T13:37:16;10.00;99.90
75262;DHT22;63859;51.064;4.580;2023-02-02T13:39:59;10.00;99.90
75262;DHT22;63859;51.064;4.580;2023-02-02T13:42:42;10.10;99.90
75262;DHT22;63859;51.064;4.580;2023-02-02T13:51:03;10.10;99.90
75262;DHT22;63859;51.064;4.580;2023-02-02T13:53:56;10.10;99.90
75262;DHT22;63859;51.064;4.580;2023-02-02T14:02:45;10.00;99.90
75262;DHT22;63859;51.064;4.580;2023-02-02T14:05:39;10.10;99.90
75262;DHT22;63859;51.064;4.580;2023-02-02T14:08:06;10.00;99.90
75262;DHT22;63859;51.064;4.580;2023-02-02T14:10:35;10.10;99.90
75262;DHT22;63859;51.064;4.580;2023-02-02T14:15:58;10.00;99.90
75262;DHT22;63859;51.064;4.580;2023-02-02T14:26:50;9.90;99.90
75262;DHT22;63859;51.064;4.580;2023-02-02T14:38:00;9.60;99.90
75262;DHT22;63859;51.064;4.580;2023-02-02T14:40:46;9.50;99.90
75262;DHT22;63859;51.064;4.580;2023-02-02T14:43:45;9.40;99.90
75262;DHT22;63859;51.064;4.580;2023-02-02T14:49:14;9.30;99.90
75262;DHT22;63859;51.064;4.580;2023-02-02T14:51:42;9.20;99.90
75262;DHT22;63859;51.064;4.580;2023-02-02T14:54:23;9.20;99.90
75262;DHT22;63859;51.064;4.580;2023-02-02T14:56:55;9.10;99.90
75262;DHT22;63859;51.064;4.580;2023-02-02T14:59:25;9.10;99.90
75262;DHT22;63859;51.064;4.580;2023-02-02T15:02:00;9.10;99.90
75262;DHT22;63859;51.064;4.580;2023-02-02T15:04:27;9.10;99.90
75262;DHT22;63859;51.064;4.580;2023-02-02T15:06:53;9.10;99.90
75262;DHT22;63859;51.064;4.580;2023-02-02T15:20:15;9.10;99.90
75262;DHT22;63859;51.064;4.580;2023-02-02T15:28:42;9.10;99.90
75262;DHT22;63859;51.064;4.580;2023-02-02T15:33:48;9.10;99.90
75262;DHT22;63859;51.064;4.580;2023-02-02T15:36:26;9.10;99.90
75262;DHT22;63859;51.064;4.580;2023-02-02T15:38:55;9.10;99.90
75262;DHT22;63859;51.064;4.580;2023-02-02T15:41:25;9.10;99.90
75262;DHT22;63859;51.064;4.580;2023-02-02T15:43:52;9.10;99.90
75262;DHT22;63859;51.064;4.580;2023-02-02T15:46:22;9.10;99.90
75262;DHT22;63859;51.064;4.580;2023-02-02T15:51:55;9.10;99.90
75262;DHT22;63859;51.064;4.580;2023-02-02T15:56:49;9.20;99.90
75262;DHT22;63859;51.064;4.580;2023-02-02T15:59:24;9.10;99.90
75262;DHT22;63859;51.064;4.580;2023-02-02T16:01:57;9.10;99.90
75262;DHT22;63859;51.064;4.580;2023-02-02T16:04:32;9.10;99.90
75262;DHT22;63859;51.064;4.580;2023-02-02T16:06:59;9.20;99.90
75262;DHT22;63859;51.064;4.580;2023-02-02T16:09:32;9.20;99.90
75262;DHT22;63859;51.064;4.580;2023-02-02T16:11:59;9.20;99.90
75262;DHT22;63859;51.064;4.580;2023-02-02T16:14:26;9.20;99.90
75262;DHT22;63859;51.064;4.580;2023-02-02T16:16:52;9.20;99.90
75262;DHT22;63859;51.064;4.580;2023-02-02T16:19:20;9.10;99.90
75262;DHT22;63859;51.064;4.580;2023-02-02T16:22:05;9.20;99.90
75262;DHT22;63859;51.064;4.580;2023-02-02T16:24:35;9.20;99.90
75262;DHT22;63859;51.064;4.580;2023-02-02T16:27:04;9.30;99.90
75262;DHT22;63859;51.064;4.580;2023-02-02T16:29:32;9.20;99.90
75262;DHT22;63859;51.064;4.580;2023-02-02T16:31:58;9.20;99.90
75262;DHT22;63859;51.064;4.580;2023-02-02T16:37:16;9.20;99.90
75262;DHT22;63859;51.064;4.580;2023-02-02T16:39:47;9.20;99.90
75262;DHT22;63859;51.064;4.580;2023-02-02T16:42:27;9.20;99.90
75262;DHT22;63859;51.064;4.580;2023-02-02T16:44:57;9.20;99.90
75262;DHT22;63859;51.064;4.580;2023-02-02T16:50:16;9.30;99.90
75262;DHT22;63859;51.064;4.580;2023-02-02T16:52:56;9.30;99.90
75262;DHT22;63859;51.064;4.580;2023-02-02T16:55:22;9.30;99.90
75262;DHT22;63859;51.064;4.580;2023-02-02T16:57:49;9.30;99.90
75262;DHT22;63859;51.064;4.580;2023-02-02T17:00:21;9.30;99.90
75262;DHT22;63859;51.064;4.580;2023-02-02T17:02:50;9.30;99.90
75262;DHT22;63859;51.064;4.580;2023-02-02T17:05:24;9.30;99.90
75262;DHT22;63859;51.064;4.580;2023-02-02T17:08:10;9.30;99.90
75262;DHT22;63859;51.064;4.580;2023-02-02T17:10:38;9.30;99.90
75262;DHT22;63859;51.064;4.580;2023-02-02T17:15:55;9.20;99.90
75262;DHT22;63859;51.064;4.580;2023-02-02T17:18:21;9.20;99.90
75262;DHT22;63859;51.064;4.580;2023-02-02T17:20:46;9.20;99.90
75262;DHT22;63859;51.064;4.580;2023-02-02T17:23:18;9.20;99.90
75262;DHT22;63859;51.064;4.580;2023-02-02T17:25:44;9.20;99.90
75262;DHT22;63859;51.064;4.580;2023-02-02T17:28:15;9.10;99.90
75262;DHT22;63859;51.064;4.580;2023-02-02T17:30:43;9.10;99.90
75262;DHT22;63859;51.064;4.580;2023-02-02T17:33:14;9.10;99.90
75262;DHT22;63859;51.064;4.580;2023-02-02T17:35:41;9.20;99.90
75262;DHT22;63859;51.064;4.580;2023-02-02T17:38:07;9.10;99.90
75262;DHT22;63859;51.064;4.580;2023-02-02T17:40:33;9.00;99.90
75262;DHT22;63859;51.064;4.580;2023-02-02T17:42:59;9.10;99.90
75262;DHT22;63859;51.064;4.580;2023-02-02T17:45:29;9.10;99.90
75262;DHT22;63859;51.064;4.580;2023-02-02T17:47:55;9.10;99.90
75262;DHT22;63859;51.064;4.580;2023-02-02T17:50:20;9.00;99.90
75262;DHT22;63859;51.064;4.580;2023-02-02T17:52:47;9.00;99.90
75262;DHT22;63859;51.064;4.580;2023-02-02T17:55:35;9.10;99.90
75262;DHT22;63859;51.064;4.580;2023-02-02T17:58:00;9.00;99.90
75262;DHT22;63859;51.064;4.580;2023-02-02T18:00:26;9.00;99.90
75262;DHT22;63859;51.064;4.580;2023-02-02T18:02:56;9.00;99.90
75262;DHT22;63859;51.064;4.580;2023-02-02T18:05:24;9.20;99.90
75262;DHT22;63859;51.064;4.580;2023-02-02T18:07:50;9.00;99.90
75262;DHT22;63859;51.064;4.580;2023-02-02T18:10:16;9.00;99.90
75262;DHT22;63859;51.064;4.580;2023-02-02T18:12:43;9.00;99.90
75262;DHT22;63859;51.064;4.580;2023-02-02T18:15:11;8.90;99.90
75262;DHT22;63859;51.064;4.580;2023-02-02T18:17:37;8.90;99.90
75262;DHT22;63859;51.064;4.580;2023-02-02T18:20:03;8.80;99.90
75262;DHT22;63859;51.064;4.580;2023-02-02T18:22:30;8.90;99.90
75262;DHT22;63859;51.064;4.580;2023-02-02T18:24:56;8.90;99.90
75262;DHT22;63859;51.064;4.580;2023-02-02T18:27:23;8.90;99.90
75262;DHT22;63859;51.064;4.580;2023-02-02T18:29:49;8.80;99.90
75262;DHT22;63859;51.064;4.580;2023-02-02T18:32:15;8.80;99.90
75262;DHT22;63859;51.064;4.580;2023-02-02T18:34:42;8.80;99.90
75262;DHT22;63859;51.064;4.580;2023-02-02T18:37:08;8.70;99.90
75262;DHT22;63859;51.064;4.580;2023-02-02T18:39:34;8.80;99.90
75262;DHT22;63859;51.064;4.580;2023-02-02T18:42:00;8.80;99.90
75262;DHT22;63859;51.064;4.580;2023-02-02T18:44:26;8.70;99.90
75262;DHT22;63859;51.064;4.580;2023-02-02T18:46:52;8.80;99.90
75262;DHT22;63859;51.064;4.580;2023-02-02T18:49:18;8.70;99.90
75262;DHT22;63859;51.064;4.580;2023-02-02T18:51:44;8.60;99.90
75262;DHT22;63859;51.064;4.580;2023-02-02T18:54:11;8.80;99.90
75262;DHT22;63859;51.064;4.580;2023-02-02T18:56:37;8.70;99.90
75262;DHT22;63859;51.064;4.580;2023-02-02T18:59:03;8.80;99.90